sensor_id;sensor_type;location;lat;lon;timestamp;P1;durP1;ratioP1;P2;durP2;ratioP2
73879;SDS011;62211;42.986;23.256;2022-09-30T00:01:07;9.40;;;5.25;;
73879;SDS011;62211;42.986;23.256;2022-09-30T00:03:33;9.65;;;4.75;;
73879;SDS011;62211;42.986;23.256;2022-09-30T00:06:01;8.23;;;4.80;;
73879;SDS011;62211;42.986;23.256;2022-09-30T00:08:28;8.57;;;5.22;;
73879;SDS011;62211;42.986;23.256;2022-09-30T00:11:01;9.45;;;5.32;;
73879;SDS011;62211;42.986;23.256;2022-09-30T00:13:28;8.65;;;5.68;;
73879;SDS011;62211;42.986;23.256;2022-09-30T00:15:54;7.75;;;5.68;;
73879;SDS011;62211;42.986;23.256;2022-09-30T00:18:20;10.40;;;6.13;;
73879;SDS011;62211;42.986;23.256;2022-09-30T00:20:45;10.20;;;6.65;;
73879;SDS011;62211;42.986;23.256;2022-09-30T00:23:10;9.00;;;5.70;;
73879;SDS011;62211;42.986;23.256;2022-09-30T00:25:36;6.90;;;5.15;;
73879;SDS011;62211;42.986;23.256;2022-09-30T00:28:01;9.20;;;5.15;;
73879;SDS011;62211;42.986;23.256;2022-09-30T00:30:26;9.75;;;5.63;;
73879;SDS011;62211;42.986;23.256;2022-09-30T00:32:52;11.25;;;6.65;;
73879;SDS011;62211;42.986;23.256;2022-09-30T00:35:17;9.13;;;5.90;;
73879;SDS011;62211;42.986;23.256;2022-09-30T00:37:45;12.23;;;5.75;;
73879;SDS011;62211;42.986;23.256;2022-09-30T00:40:10;8.13;;;5.75;;
73879;SDS011;62211;42.986;23.256;2022-09-30T00:42:39;6.55;;;5.45;;
73879;SDS011;62211;42.986;23.256;2022-09-30T00:45:06;9.82;;;5.57;;
73879;SDS011;62211;42.986;23.256;2022-09-30T00:47:39;12.38;;;6.32;;
73879;SDS011;62211;42.986;23.256;2022-09-30T00:50:38;7.10;;;5.80;;
73879;SDS011;62211;42.986;23.256;2022-09-30T00:53:17;14.70;;;8.00;;
73879;SDS011;62211;42.986;23.256;2022-09-30T00:55:50;8.52;;;5.97;;
73879;SDS011;62211;42.986;23.256;2022-09-30T00:58:20;8.25;;;5.38;;
73879;SDS011;62211;42.986;23.256;2022-09-30T01:00:49;7.30;;;5.45;;
73879;SDS011;62211;42.986;23.256;2022-09-30T01:03:15;9.13;;;5.88;;
73879;SDS011;62211;42.986;23.256;2022-09-30T01:05:42;12.27;;;6.40;;
73879;SDS011;62211;42.986;23.256;2022-09-30T01:08:08;9.65;;;6.40;;
73879;SDS011;62211;42.986;23.256;2022-09-30T01:10:34;12.55;;;6.40;;
73879;SDS011;62211;42.986;23.256;2022-09-30T01:13:00;8.48;;;6.68;;
73879;SDS011;62211;42.986;23.256;2022-09-30T01:15:31;13.90;;;7.20;;
73879;SDS011;62211;42.986;23.256;2022-09-30T01:20:53;13.32;;;7.43;;
73879;SDS011;62211;42.986;23.256;2022-09-30T01:34:50;17.20;;;6.53;;
73879;SDS011;62211;42.986;23.256;2022-09-30T01:45:34;22.02;;;5.35;;
73879;SDS011;62211;42.986;23.256;2022-09-30T01:48:21;14.63;;;7.25;;
73879;SDS011;62211;42.986;23.256;2022-09-30T01:53:30;18.98;;;7.10;;
73879;SDS011;62211;42.986;23.256;2022-09-30T01:59:00;24.85;;;5.15;;
73879;SDS011;62211;42.986;23.256;2022-09-30T02:01:39;18.52;;;5.40;;
73879;SDS011;62211;42.986;23.256;2022-09-30T02:04:24;18.95;;;6.15;;
73879;SDS011;62211;42.986;23.256;2022-09-30T02:06:53;19.48;;;6.55;;
73879;SDS011;62211;42.986;23.256;2022-09-30T02:09:23;20.00;;;6.43;;
73879;SDS011;62211;42.986;23.256;2022-09-30T02:11:52;15.25;;;7.78;;
73879;SDS011;62211;42.986;23.256;2022-09-30T02:22:17;9.77;;;5.85;;
73879;SDS011;62211;42.986;23.256;2022-09-30T02:24:45;8.00;;;6.10;;
73879;SDS011;62211;42.986;23.256;2022-09-30T02:27:17;8.15;;;5.25;;
73879;SDS011;62211;42.986;23.256;2022-09-30T02:29:47;8.23;;;5.15;;
73879;SDS011;62211;42.986;23.256;2022-09-30T02:32:25;8.07;;;5.68;;
73879;SDS011;62211;42.986;23.256;2022-09-30T02:34:56;10.20;;;6.07;;
73879;SDS011;62211;42.986;23.256;2022-09-30T02:37:30;9.23;;;5.70;;
73879;SDS011;62211;42.986;23.256;2022-09-30T02:40:01;9.85;;;4.95;;
73879;SDS011;62211;42.986;23.256;2022-09-30T02:42:30;11.57;;;5.63;;
73879;SDS011;62211;42.986;23.256;2022-09-30T02:45:15;11.82;;;6.07;;
73879;SDS011;62211;42.986;23.256;2022-09-30T02:47:48;7.10;;;4.72;;
73879;SDS011;62211;42.986;23.256;2022-09-30T02:50:48;9.40;;;4.82;;
73879;SDS011;62211;42.986;23.256;2022-09-30T02:58:36;9.98;;;5.38;;
73879;SDS011;62211;42.986;23.256;2022-09-30T03:01:03;6.80;;;4.97;;
73879;SDS011;62211;42.986;23.256;2022-09-30T03:03:32;7.95;;;5.15;;
73879;SDS011;62211;42.986;23.256;2022-09-30T03:06:01;5.72;;;4.70;;
73879;SDS011;62211;42.986;23.256;2022-09-30T03:08:26;7.35;;;4.50;;
73879;SDS011;62211;42.986;23.256;2022-09-30T03:10:52;14.95;;;4.95;;
73879;SDS011;62211;42.986;23.256;2022-09-30T03:21:21;9.48;;;5.30;;
73879;SDS011;62211;42.986;23.256;2022-09-30T03:32:27;11.93;;;5.00;;
73879;SDS011;62211;42.986;23.256;2022-09-30T03:45:45;10.73;;;5.78;;
73879;SDS011;62211;42.986;23.256;2022-09-30T03:48:15;13.50;;;5.95;;
73879;SDS011;62211;42.986;23.256;2022-09-30T03:50:42;9.80;;;4.90;;
73879;SDS011;62211;42.986;23.256;2022-09-30T03:53:08;10.07;;;4.97;;
73879;SDS011;62211;42.986;23.256;2022-09-30T03:55:57;5.95;;;4.55;;
73879;SDS011;62211;42.986;23.256;2022-09-30T03:58:22;19.30;;;5.57;;
73879;SDS011;62211;42.986;23.256;2022-09-30T04:00:51;10.90;;;5.43;;
73879;SDS011;62211;42.986;23.256;2022-09-30T04:03:18;9.55;;;4.95;;
73879;SDS011;62211;42.986;23.256;2022-09-30T04:05:45;13.65;;;6.45;;
73879;SDS011;62211;42.986;23.256;2022-09-30T04:08:11;14.45;;;6.88;;
73879;SDS011;62211;42.986;23.256;2022-09-30T04:10:39;13.73;;;6.47;;
73879;SDS011;62211;42.986;23.256;2022-09-30T04:13:06;7.38;;;5.97;;
73879;SDS011;62211;42.986;23.256;2022-09-30T04:15:32;5.82;;;4.60;;
73879;SDS011;62211;42.986;23.256;2022-09-30T04:17:57;7.43;;;5.07;;
73879;SDS011;62211;42.986;23.256;2022-09-30T04:20:23;7.18;;;5.22;;
73879;SDS011;62211;42.986;23.256;2022-09-30T04:22:49;5.95;;;4.80;;
73879;SDS011;62211;42.986;23.256;2022-09-30T04:25:14;7.18;;;4.80;;
73879;SDS011;62211;42.986;23.256;2022-09-30T04:27:40;7.13;;;4.78;;
73879;SDS011;62211;42.986;23.256;2022-09-30T04:30:05;9.57;;;5.47;;
73879;SDS011;62211;42.986;23.256;2022-09-30T04:32:31;12.77;;;6.82;;
73879;SDS011;62211;42.986;23.256;2022-09-30T04:34:56;16.65;;;6.88;;
73879;SDS011;62211;42.986;23.256;2022-09-30T04:37:22;15.95;;;6.20;;
73879;SDS011;62211;42.986;23.256;2022-09-30T04:39:48;12.90;;;7.55;;
73879;SDS011;62211;42.986;23.256;2022-09-30T04:42:13;11.82;;;7.70;;
73879;SDS011;62211;42.986;23.256;2022-09-30T04:44:41;12.73;;;7.88;;
73879;SDS011;62211;42.986;23.256;2022-09-30T04:47:06;8.18;;;5.47;;
73879;SDS011;62211;42.986;23.256;2022-09-30T04:49:32;14.30;;;6.95;;
73879;SDS011;62211;42.986;23.256;2022-09-30T04:51:57;9.57;;;7.35;;
73879;SDS011;62211;42.986;23.256;2022-09-30T04:54:22;10.57;;;7.72;;
73879;SDS011;62211;42.986;23.256;2022-09-30T04:56:49;16.25;;;9.85;;
73879;SDS011;62211;42.986;23.256;2022-09-30T04:59:14;14.68;;;7.45;;
73879;SDS011;62211;42.986;23.256;2022-09-30T05:01:40;17.55;;;6.28;;
73879;SDS011;62211;42.986;23.256;2022-09-30T05:04:07;8.20;;;6.30;;
73879;SDS011;62211;42.986;23.256;2022-09-30T05:06:32;14.48;;;6.88;;
73879;SDS011;62211;42.986;23.256;2022-09-30T05:08:58;16.75;;;7.45;;
73879;SDS011;62211;42.986;23.256;2022-09-30T05:11:23;16.38;;;7.53;;
73879;SDS011;62211;42.986;23.256;2022-09-30T05:13:49;9.80;;;6.68;;
73879;SDS011;62211;42.986;23.256;2022-09-30T05:16:15;12.80;;;7.32;;
73879;SDS011;62211;42.986;23.256;2022-09-30T05:18:41;15.95;;;7.13;;
73879;SDS011;62211;42.986;23.256;2022-09-30T05:21:10;11.77;;;7.03;;
73879;SDS011;62211;42.986;23.256;2022-09-30T05:23:36;13.48;;;6.85;;
73879;SDS011;62211;42.986;23.256;2022-09-30T05:26:02;10.98;;;6.55;;
73879;SDS011;62211;42.986;23.256;2022-09-30T05:28:28;13.93;;;7.75;;
73879;SDS011;62211;42.986;23.256;2022-09-30T05:30:59;11.02;;;6.60;;
73879;SDS011;62211;42.986;23.256;2022-09-30T05:33:26;8.27;;;6.28;;
73879;SDS011;62211;42.986;23.256;2022-09-30T05:35:53;9.45;;;6.88;;
73879;SDS011;62211;42.986;23.256;2022-09-30T05:38:19;15.75;;;6.72;;
73879;SDS011;62211;42.986;23.256;2022-09-30T05:40:45;14.05;;;7.13;;
73879;SDS011;62211;42.986;23.256;2022-09-30T05:43:10;13.05;;;6.03;;
73879;SDS011;62211;42.986;23.256;2022-09-30T05:45:36;32.28;;;10.10;;
73879;SDS011;62211;42.986;23.256;2022-09-30T05:48:02;17.10;;;8.25;;
73879;SDS011;62211;42.986;23.256;2022-09-30T05:50:27;12.80;;;7.32;;
73879;SDS011;62211;42.986;23.256;2022-09-30T05:52:53;20.50;;;8.68;;
73879;SDS011;62211;42.986;23.256;2022-09-30T05:55:19;17.52;;;8.98;;
73879;SDS011;62211;42.986;23.256;2022-09-30T05:57:49;14.57;;;8.43;;
73879;SDS011;62211;42.986;23.256;2022-09-30T06:00:16;11.73;;;8.13;;
73879;SDS011;62211;42.986;23.256;2022-09-30T06:02:42;16.25;;;9.27;;
73879;SDS011;62211;42.986;23.256;2022-09-30T06:05:08;18.40;;;9.48;;
73879;SDS011;62211;42.986;23.256;2022-09-30T06:07:34;15.82;;;8.07;;
73879;SDS011;62211;42.986;23.256;2022-09-30T06:10:01;14.77;;;7.53;;
73879;SDS011;62211;42.986;23.256;2022-09-30T06:12:29;14.98;;;8.18;;
73879;SDS011;62211;42.986;23.256;2022-09-30T06:14:55;11.70;;;8.18;;
73879;SDS011;62211;42.986;23.256;2022-09-30T06:17:21;16.23;;;10.77;;
73879;SDS011;62211;42.986;23.256;2022-09-30T06:19:47;14.70;;;8.85;;
73879;SDS011;62211;42.986;23.256;2022-09-30T06:22:13;15.63;;;8.77;;
73879;SDS011;62211;42.986;23.256;2022-09-30T06:24:40;14.52;;;8.50;;
73879;SDS011;62211;42.986;23.256;2022-09-30T06:27:05;14.05;;;8.13;;
73879;SDS011;62211;42.986;23.256;2022-09-30T06:29:31;15.55;;;8.38;;
73879;SDS011;62211;42.986;23.256;2022-09-30T06:31:56;17.77;;;8.70;;
73879;SDS011;62211;42.986;23.256;2022-09-30T06:34:21;15.48;;;8.90;;
73879;SDS011;62211;42.986;23.256;2022-09-30T06:36:47;19.95;;;9.00;;
73879;SDS011;62211;42.986;23.256;2022-09-30T06:39:13;13.23;;;8.77;;
73879;SDS011;62211;42.986;23.256;2022-09-30T06:41:38;13.52;;;9.13;;
73879;SDS011;62211;42.986;23.256;2022-09-30T06:44:06;16.30;;;9.45;;
73879;SDS011;62211;42.986;23.256;2022-09-30T06:46:31;25.55;;;19.50;;
73879;SDS011;62211;42.986;23.256;2022-09-30T06:48:57;19.10;;;14.60;;
73879;SDS011;62211;42.986;23.256;2022-09-30T06:51:23;19.67;;;12.95;;
73879;SDS011;62211;42.986;23.256;2022-09-30T06:53:53;13.02;;;8.10;;
73879;SDS011;62211;42.986;23.256;2022-09-30T06:56:19;11.57;;;8.40;;
73879;SDS011;62211;42.986;23.256;2022-09-30T06:58:45;10.57;;;8.40;;
73879;SDS011;62211;42.986;23.256;2022-09-30T07:01:11;13.20;;;9.25;;
73879;SDS011;62211;42.986;23.256;2022-09-30T07:03:41;13.45;;;8.60;;
73879;SDS011;62211;42.986;23.256;2022-09-30T07:06:08;14.23;;;8.15;;
73879;SDS011;62211;42.986;23.256;2022-09-30T07:08:34;15.75;;;9.00;;
73879;SDS011;62211;42.986;23.256;2022-09-30T07:11:01;15.95;;;8.82;;
73879;SDS011;62211;42.986;23.256;2022-09-30T07:13:38;9.57;;;7.88;;
73879;SDS011;62211;42.986;23.256;2022-09-30T07:16:06;9.63;;;7.63;;
73879;SDS011;62211;42.986;23.256;2022-09-30T07:18:32;13.68;;;8.18;;
73879;SDS011;62211;42.986;23.256;2022-09-30T07:20:57;10.63;;;7.35;;
73879;SDS011;62211;42.986;23.256;2022-09-30T07:23:23;15.68;;;8.27;;
73879;SDS011;62211;42.986;23.256;2022-09-30T07:25:54;9.30;;;6.43;;
73879;SDS011;62211;42.986;23.256;2022-09-30T07:28:22;7.47;;;5.75;;
73879;SDS011;62211;42.986;23.256;2022-09-30T07:30:53;9.23;;;5.85;;
73879;SDS011;62211;42.986;23.256;2022-09-30T07:33:20;5.63;;;5.07;;
73879;SDS011;62211;42.986;23.256;2022-09-30T07:35:51;8.95;;;5.07;;
73879;SDS011;62211;42.986;23.256;2022-09-30T07:38:18;10.95;;;6.38;;
73879;SDS011;62211;42.986;23.256;2022-09-30T07:40:58;8.05;;;5.20;;
73879;SDS011;62211;42.986;23.256;2022-09-30T07:43:25;8.05;;;5.60;;
73879;SDS011;62211;42.986;23.256;2022-09-30T07:46:01;9.30;;;4.85;;
73879;SDS011;62211;42.986;23.256;2022-09-30T07:48:38;8.20;;;5.78;;
73879;SDS011;62211;42.986;23.256;2022-09-30T07:53:41;15.70;;;6.25;;
73879;SDS011;62211;42.986;23.256;2022-09-30T07:56:10;6.55;;;5.80;;
73879;SDS011;62211;42.986;23.256;2022-09-30T07:58:36;6.78;;;5.45;;
73879;SDS011;62211;42.986;23.256;2022-09-30T08:01:02;9.80;;;5.43;;
73879;SDS011;62211;42.986;23.256;2022-09-30T08:03:31;8.23;;;5.22;;
73879;SDS011;62211;42.986;23.256;2022-09-30T08:06:03;6.93;;;4.57;;
73879;SDS011;62211;42.986;23.256;2022-09-30T08:08:33;6.88;;;4.90;;
73879;SDS011;62211;42.986;23.256;2022-09-30T08:10:59;8.50;;;6.32;;
73879;SDS011;62211;42.986;23.256;2022-09-30T08:13:25;7.35;;;4.70;;
73879;SDS011;62211;42.986;23.256;2022-09-30T08:15:51;6.50;;;4.53;;
73879;SDS011;62211;42.986;23.256;2022-09-30T08:18:16;6.63;;;4.32;;
73879;SDS011;62211;42.986;23.256;2022-09-30T08:20:42;5.97;;;3.88;;
73879;SDS011;62211;42.986;23.256;2022-09-30T08:23:07;6.82;;;4.05;;
73879;SDS011;62211;42.986;23.256;2022-09-30T08:25:33;8.60;;;4.00;;
73879;SDS011;62211;42.986;23.256;2022-09-30T08:27:58;8.80;;;4.65;;
73879;SDS011;62211;42.986;23.256;2022-09-30T08:30:23;4.93;;;3.95;;
73879;SDS011;62211;42.986;23.256;2022-09-30T08:32:49;7.22;;;4.47;;
73879;SDS011;62211;42.986;23.256;2022-09-30T08:35:14;6.28;;;4.28;;
73879;SDS011;62211;42.986;23.256;2022-09-30T08:37:40;7.93;;;4.30;;
73879;SDS011;62211;42.986;23.256;2022-09-30T08:40:06;10.95;;;4.32;;
73879;SDS011;62211;42.986;23.256;2022-09-30T08:45:21;6.53;;;4.25;;
73879;SDS011;62211;42.986;23.256;2022-09-30T08:48:28;8.50;;;4.32;;
73879;SDS011;62211;42.986;23.256;2022-09-30T08:53:58;6.80;;;4.10;;
73879;SDS011;62211;42.986;23.256;2022-09-30T08:56:27;7.10;;;4.03;;
73879;SDS011;62211;42.986;23.256;2022-09-30T08:58:55;6.63;;;4.57;;
73879;SDS011;62211;42.986;23.256;2022-09-30T09:01:32;20.25;;;6.35;;
73879;SDS011;62211;42.986;23.256;2022-09-30T09:03:59;6.03;;;4.13;;
73879;SDS011;62211;42.986;23.256;2022-09-30T09:06:41;8.40;;;3.65;;
73879;SDS011;62211;42.986;23.256;2022-09-30T09:22:36;4.15;;;3.60;;
73879;SDS011;62211;42.986;23.256;2022-09-30T09:25:02;3.47;;;3.17;;
73879;SDS011;62211;42.986;23.256;2022-09-30T09:32:33;4.13;;;3.28;;
73879;SDS011;62211;42.986;23.256;2022-09-30T09:35:00;4.03;;;3.58;;
73879;SDS011;62211;42.986;23.256;2022-09-30T09:37:39;8.38;;;3.60;;
73879;SDS011;62211;42.986;23.256;2022-09-30T09:40:33;3.78;;;3.30;;
73879;SDS011;62211;42.986;23.256;2022-09-30T09:43:20;6.18;;;3.83;;
73879;SDS011;62211;42.986;23.256;2022-09-30T09:48:22;4.15;;;3.78;;
73879;SDS011;62211;42.986;23.256;2022-09-30T09:50:50;4.22;;;3.35;;
73879;SDS011;62211;42.986;23.256;2022-09-30T09:56:38;5.03;;;3.15;;
73879;SDS011;62211;42.986;23.256;2022-09-30T10:01:33;3.70;;;2.92;;
73879;SDS011;62211;42.986;23.256;2022-09-30T10:04:11;3.33;;;2.30;;
73879;SDS011;62211;42.986;23.256;2022-09-30T10:09:28;4.07;;;3.00;;
73879;SDS011;62211;42.986;23.256;2022-09-30T10:14:30;3.95;;;2.80;;
73879;SDS011;62211;42.986;23.256;2022-09-30T10:17:19;2.88;;;2.58;;
73879;SDS011;62211;42.986;23.256;2022-09-30T10:19:52;3.83;;;2.70;;
73879;SDS011;62211;42.986;23.256;2022-09-30T10:22:23;3.85;;;2.85;;
73879;SDS011;62211;42.986;23.256;2022-09-30T10:24:51;3.42;;;2.80;;
73879;SDS011;62211;42.986;23.256;2022-09-30T10:27:33;3.55;;;2.50;;
73879;SDS011;62211;42.986;23.256;2022-09-30T10:29:59;5.35;;;2.58;;
73879;SDS011;62211;42.986;23.256;2022-09-30T10:32:24;6.25;;;3.30;;
73879;SDS011;62211;42.986;23.256;2022-09-30T10:34:55;21.33;;;13.45;;
73879;SDS011;62211;42.986;23.256;2022-09-30T10:37:27;32.30;;;17.92;;
73879;SDS011;62211;42.986;23.256;2022-09-30T10:40:04;17.42;;;11.50;;
73879;SDS011;62211;42.986;23.256;2022-09-30T10:42:32;4.72;;;2.95;;
73879;SDS011;62211;42.986;23.256;2022-09-30T10:45:05;4.93;;;3.20;;
73879;SDS011;62211;42.986;23.256;2022-09-30T10:47:34;3.30;;;3.00;;
73879;SDS011;62211;42.986;23.256;2022-09-30T10:50:09;3.15;;;2.85;;
73879;SDS011;62211;42.986;23.256;2022-09-30T10:52:38;4.00;;;2.25;;
73879;SDS011;62211;42.986;23.256;2022-09-30T10:55:31;3.00;;;2.70;;
73879;SDS011;62211;42.986;23.256;2022-09-30T11:03:53;4.32;;;2.25;;
73879;SDS011;62211;42.986;23.256;2022-09-30T11:06:40;3.78;;;2.40;;
73879;SDS011;62211;42.986;23.256;2022-09-30T11:09:11;3.03;;;2.55;;
73879;SDS011;62211;42.986;23.256;2022-09-30T11:11:44;5.97;;;2.88;;
73879;SDS011;62211;42.986;23.256;2022-09-30T11:14:24;3.35;;;2.22;;
73879;SDS011;62211;42.986;23.256;2022-09-30T11:17:12;2.20;;;2.10;;
73879;SDS011;62211;42.986;23.256;2022-09-30T11:20:04;2.92;;;2.20;;
73879;SDS011;62211;42.986;23.256;2022-09-30T11:22:45;2.15;;;1.83;;
73879;SDS011;62211;42.986;23.256;2022-09-30T11:25:56;6.30;;;2.20;;
73879;SDS011;62211;42.986;23.256;2022-09-30T11:28:39;2.50;;;1.98;;
73879;SDS011;62211;42.986;23.256;2022-09-30T11:37:23;3.85;;;2.60;;
73879;SDS011;62211;42.986;23.256;2022-09-30T11:56:51;5.13;;;2.58;;
73879;SDS011;62211;42.986;23.256;2022-09-30T11:59:26;3.08;;;2.70;;
73879;SDS011;62211;42.986;23.256;2022-09-30T12:01:55;4.15;;;2.22;;
73879;SDS011;62211;42.986;23.256;2022-09-30T12:04:27;4.63;;;2.45;;
73879;SDS011;62211;42.986;23.256;2022-09-30T12:09:35;3.90;;;2.10;;
73879;SDS011;62211;42.986;23.256;2022-09-30T12:12:05;4.45;;;2.28;;
73879;SDS011;62211;42.986;23.256;2022-09-30T12:20:22;8.23;;;2.22;;
73879;SDS011;62211;42.986;23.256;2022-09-30T12:22:51;3.22;;;2.35;;
73879;SDS011;62211;42.986;23.256;2022-09-30T12:25:42;2.60;;;2.38;;
73879;SDS011;62211;42.986;23.256;2022-09-30T12:36:34;8.82;;;3.85;;
73879;SDS011;62211;42.986;23.256;2022-09-30T12:39:20;14.48;;;5.38;;
73879;SDS011;62211;42.986;23.256;2022-09-30T12:44:58;6.38;;;3.20;;
73879;SDS011;62211;42.986;23.256;2022-09-30T12:47:39;6.25;;;3.97;;
73879;SDS011;62211;42.986;23.256;2022-09-30T12:50:12;7.10;;;3.00;;
73879;SDS011;62211;42.986;23.256;2022-09-30T12:52:40;3.53;;;2.95;;
73879;SDS011;62211;42.986;23.256;2022-09-30T12:55:07;3.83;;;3.10;;
73879;SDS011;62211;42.986;23.256;2022-09-30T12:57:52;10.43;;;3.10;;
73879;SDS011;62211;42.986;23.256;2022-09-30T13:00:19;5.03;;;2.67;;
73879;SDS011;62211;42.986;23.256;2022-09-30T13:02:53;4.07;;;2.10;;
73879;SDS011;62211;42.986;23.256;2022-09-30T13:10:29;5.10;;;2.45;;
73879;SDS011;62211;42.986;23.256;2022-09-30T13:23:31;2.05;;;1.70;;
73879;SDS011;62211;42.986;23.256;2022-09-30T13:28:53;2.20;;;1.80;;
73879;SDS011;62211;42.986;23.256;2022-09-30T13:34:26;2.60;;;1.75;;
73879;SDS011;62211;42.986;23.256;2022-09-30T13:37:01;5.90;;;2.38;;
73879;SDS011;62211;42.986;23.256;2022-09-30T13:47:39;1.83;;;1.63;;
73879;SDS011;62211;42.986;23.256;2022-09-30T13:50:12;2.42;;;2.25;;
73879;SDS011;62211;42.986;23.256;2022-09-30T13:52:44;19.63;;;10.07;;
73879;SDS011;62211;42.986;23.256;2022-09-30T13:55:19;11.85;;;9.25;;
73879;SDS011;62211;42.986;23.256;2022-09-30T14:22:01;6.68;;;3.22;;
73879;SDS011;62211;42.986;23.256;2022-09-30T14:24:29;4.82;;;2.80;;
73879;SDS011;62211;42.986;23.256;2022-09-30T14:32:47;4.65;;;4.00;;
73879;SDS011;62211;42.986;23.256;2022-09-30T14:35:33;12.25;;;3.85;;
73879;SDS011;62211;42.986;23.256;2022-09-30T14:38:06;7.82;;;4.40;;
73879;SDS011;62211;42.986;23.256;2022-09-30T14:40:38;4.80;;;3.03;;
73879;SDS011;62211;42.986;23.256;2022-09-30T14:43:06;5.57;;;3.08;;
73879;SDS011;62211;42.986;23.256;2022-09-30T14:45:35;4.50;;;3.20;;
73879;SDS011;62211;42.986;23.256;2022-09-30T14:48:09;7.40;;;2.97;;
73879;SDS011;62211;42.986;23.256;2022-09-30T14:51:24;6.47;;;2.85;;
73879;SDS011;62211;42.986;23.256;2022-09-30T14:53:32;7.35;;;3.50;;
73879;SDS011;62211;42.986;23.256;2022-09-30T14:56:00;11.57;;;4.60;;
73879;SDS011;62211;42.986;23.256;2022-09-30T14:58:29;4.00;;;3.33;;
73879;SDS011;62211;42.986;23.256;2022-09-30T15:01:04;12.85;;;3.40;;
73879;SDS011;62211;42.986;23.256;2022-09-30T15:03:40;6.50;;;3.10;;
73879;SDS011;62211;42.986;23.256;2022-09-30T15:08:58;6.03;;;3.05;;
73879;SDS011;62211;42.986;23.256;2022-09-30T15:11:27;4.43;;;3.25;;
73879;SDS011;62211;42.986;23.256;2022-09-30T15:13:57;6.00;;;3.63;;
73879;SDS011;62211;42.986;23.256;2022-09-30T15:16:25;9.70;;;3.47;;
73879;SDS011;62211;42.986;23.256;2022-09-30T15:18:52;4.50;;;3.10;;
73879;SDS011;62211;42.986;23.256;2022-09-30T15:21:18;11.20;;;3.55;;
73879;SDS011;62211;42.986;23.256;2022-09-30T15:23:48;4.97;;;3.00;;
73879;SDS011;62211;42.986;23.256;2022-09-30T15:26:16;6.57;;;3.65;;
73879;SDS011;62211;42.986;23.256;2022-09-30T15:28:43;8.15;;;4.88;;
73879;SDS011;62211;42.986;23.256;2022-09-30T15:31:13;11.50;;;4.10;;
73879;SDS011;62211;42.986;23.256;2022-09-30T15:33:44;11.30;;;5.05;;
73879;SDS011;62211;42.986;23.256;2022-09-30T15:36:13;8.13;;;3.67;;
73879;SDS011;62211;42.986;23.256;2022-09-30T15:38:44;5.65;;;5.15;;
73879;SDS011;62211;42.986;23.256;2022-09-30T15:41:12;5.90;;;4.03;;
73879;SDS011;62211;42.986;23.256;2022-09-30T15:43:39;8.65;;;4.30;;
73879;SDS011;62211;42.986;23.256;2022-09-30T15:48:56;11.35;;;5.22;;
73879;SDS011;62211;42.986;23.256;2022-09-30T15:51:27;12.05;;;4.97;;
73879;SDS011;62211;42.986;23.256;2022-09-30T15:56:39;8.45;;;4.25;;
73879;SDS011;62211;42.986;23.256;2022-09-30T15:59:06;10.88;;;5.63;;
73879;SDS011;62211;42.986;23.256;2022-09-30T16:01:39;8.77;;;4.20;;
73879;SDS011;62211;42.986;23.256;2022-09-30T16:06:48;5.40;;;4.20;;
73879;SDS011;62211;42.986;23.256;2022-09-30T16:17:15;11.57;;;5.13;;
73879;SDS011;62211;42.986;23.256;2022-09-30T16:19:48;9.30;;;5.65;;
73879;SDS011;62211;42.986;23.256;2022-09-30T16:25:26;7.80;;;5.20;;
73879;SDS011;62211;42.986;23.256;2022-09-30T16:28:04;8.43;;;5.30;;
73879;SDS011;62211;42.986;23.256;2022-09-30T16:30:35;12.18;;;6.15;;
73879;SDS011;62211;42.986;23.256;2022-09-30T16:33:05;11.73;;;6.45;;
73879;SDS011;62211;42.986;23.256;2022-09-30T16:35:30;6.95;;;5.85;;
73879;SDS011;62211;42.986;23.256;2022-09-30T16:38:01;14.40;;;7.18;;
73879;SDS011;62211;42.986;23.256;2022-09-30T16:40:30;19.40;;;8.70;;
73879;SDS011;62211;42.986;23.256;2022-09-30T16:42:57;10.50;;;6.13;;
73879;SDS011;62211;42.986;23.256;2022-09-30T16:45:23;8.85;;;4.30;;
73879;SDS011;62211;42.986;23.256;2022-09-30T16:47:49;14.02;;;9.52;;
73879;SDS011;62211;42.986;23.256;2022-09-30T16:53:02;32.35;;;14.55;;
73879;SDS011;62211;42.986;23.256;2022-09-30T16:55:27;26.42;;;12.48;;
73879;SDS011;62211;42.986;23.256;2022-09-30T16:57:54;13.50;;;6.68;;
73879;SDS011;62211;42.986;23.256;2022-09-30T17:00:22;12.02;;;6.72;;
73879;SDS011;62211;42.986;23.256;2022-09-30T17:02:48;17.60;;;8.50;;
73879;SDS011;62211;42.986;23.256;2022-09-30T17:05:14;17.33;;;6.13;;
73879;SDS011;62211;42.986;23.256;2022-09-30T17:07:43;10.02;;;5.57;;
73879;SDS011;62211;42.986;23.256;2022-09-30T17:10:15;11.35;;;5.55;;
73879;SDS011;62211;42.986;23.256;2022-09-30T17:12:43;12.35;;;5.80;;
73879;SDS011;62211;42.986;23.256;2022-09-30T17:15:09;8.90;;;5.55;;
73879;SDS011;62211;42.986;23.256;2022-09-30T17:17:35;14.45;;;5.00;;
73879;SDS011;62211;42.986;23.256;2022-09-30T17:20:00;7.68;;;4.28;;
73879;SDS011;62211;42.986;23.256;2022-09-30T17:22:26;16.42;;;6.35;;
73879;SDS011;62211;42.986;23.256;2022-09-30T17:24:51;14.70;;;8.95;;
73879;SDS011;62211;42.986;23.256;2022-09-30T17:27:17;10.57;;;7.45;;
73879;SDS011;62211;42.986;23.256;2022-09-30T17:29:42;7.53;;;5.68;;
73879;SDS011;62211;42.986;23.256;2022-09-30T17:32:07;119.50;;;33.35;;
73879;SDS011;62211;42.986;23.256;2022-09-30T17:34:33;104.88;;;30.90;;
73879;SDS011;62211;42.986;23.256;2022-09-30T17:36:58;124.45;;;34.28;;
73879;SDS011;62211;42.986;23.256;2022-09-30T17:39:27;33.92;;;14.27;;
73879;SDS011;62211;42.986;23.256;2022-09-30T17:41:52;65.95;;;24.90;;
73879;SDS011;62211;42.986;23.256;2022-09-30T17:44:36;60.92;;;21.63;;
73879;SDS011;62211;42.986;23.256;2022-09-30T17:47:03;50.10;;;18.30;;
73879;SDS011;62211;42.986;23.256;2022-09-30T17:49:29;24.00;;;12.95;;
73879;SDS011;62211;42.986;23.256;2022-09-30T17:51:58;16.85;;;7.45;;
73879;SDS011;62211;42.986;23.256;2022-09-30T17:54:24;6.90;;;5.53;;
73879;SDS011;62211;42.986;23.256;2022-09-30T17:56:50;8.77;;;5.00;;
73879;SDS011;62211;42.986;23.256;2022-09-30T17:59:16;9.60;;;6.28;;
73879;SDS011;62211;42.986;23.256;2022-09-30T18:01:43;9.55;;;6.68;;
73879;SDS011;62211;42.986;23.256;2022-09-30T18:04:09;11.48;;;6.97;;
73879;SDS011;62211;42.986;23.256;2022-09-30T18:06:34;13.32;;;8.07;;
73879;SDS011;62211;42.986;23.256;2022-09-30T18:09:00;36.58;;;18.40;;
73879;SDS011;62211;42.986;23.256;2022-09-30T18:11:26;20.65;;;11.85;;
73879;SDS011;62211;42.986;23.256;2022-09-30T18:13:55;22.92;;;12.30;;
73879;SDS011;62211;42.986;23.256;2022-09-30T18:16:25;48.45;;;25.60;;
73879;SDS011;62211;42.986;23.256;2022-09-30T18:18:54;42.20;;;21.42;;
73879;SDS011;62211;42.986;23.256;2022-09-30T18:21:23;22.30;;;12.95;;
73879;SDS011;62211;42.986;23.256;2022-09-30T18:23:49;27.40;;;12.95;;
73879;SDS011;62211;42.986;23.256;2022-09-30T18:26:16;15.10;;;10.25;;
73879;SDS011;62211;42.986;23.256;2022-09-30T18:28:41;12.95;;;8.43;;
73879;SDS011;62211;42.986;23.256;2022-09-30T18:31:08;20.50;;;9.82;;
73879;SDS011;62211;42.986;23.256;2022-09-30T18:33:34;12.80;;;9.07;;
73879;SDS011;62211;42.986;23.256;2022-09-30T18:35:59;14.32;;;8.20;;
73879;SDS011;62211;42.986;23.256;2022-09-30T18:38:25;14.50;;;8.55;;
73879;SDS011;62211;42.986;23.256;2022-09-30T18:40:52;11.68;;;7.00;;
73879;SDS011;62211;42.986;23.256;2022-09-30T18:43:18;9.15;;;6.63;;
73879;SDS011;62211;42.986;23.256;2022-09-30T18:45:54;13.15;;;5.68;;